Time;durP1;ratioP1;P1;durP2;ratioP2;P2;SDS_P1;SDS_P2;PMS_P1;PMS_P2;Temp;Humidity;BMP_temperature;BMP_pressure;BME280_temperature;BME280_humidity;BME280_pressure;Samples;Min_cycle;Max_cycle;Signal;HPM_P1;HPM_P2
2022/07/11 00:01:36;;;;;;;1.92;1.55;;;16.60;99.90;;;;;;4937479;29;20126;-72
2022/07/11 00:04:01;;;;;;;2.00;1.08;;;16.60;99.90;;;;;;4936651;29;20486;-72
2022/07/11 00:06:27;;;;;;;1.85;1.38;;;16.60;99.90;;;;;;4937504;29;20052;-72
2022/07/11 00:08:53;;;;;;;2.03;1.48;;;16.60;99.90;;;;;;4936879;29;20490;-72
2022/07/11 00:11:19;;;;;;;2.97;1.20;;;16.60;99.90;;;;;;4937528;29;20055;-72
2022/07/11 00:13:45;;;;;;;1.30;1.20;;;16.60;99.90;;;;;;4936803;29;20052;-72
2022/07/11 00:16:10;;;;;;;3.55;1.35;;;16.50;99.90;;;;;;4936214;29;20052;-72
2022/07/11 00:18:36;;;;;;;1.30;1.15;;;16.50;99.90;;;;;;4937007;29;20040;-72
2022/07/11 00:21:02;;;;;;;1.45;1.10;;;16.50;99.90;;;;;;4936965;29;20048;-72
2022/07/11 00:23:27;;;;;;;2.88;1.40;;;16.50;99.90;;;;;;4937018;29;20118;-72
2022/07/11 00:25:53;;;;;;;2.08;1.08;;;16.50;99.90;;;;;;4937338;29;20069;-72
2022/07/11 00:28:19;;;;;;;2.10;0.95;;;16.50;99.90;;;;;;4936430;29;20043;-72
2022/07/11 00:30:45;;;;;;;2.05;0.90;;;16.40;99.90;;;;;;4937151;29;20115;-72
2022/07/11 00:33:11;;;;;;;2.03;1.40;;;16.40;99.90;;;;;;4937261;29;20453;-72
2022/07/11 00:35:36;;;;;;;1.35;1.02;;;16.30;99.90;;;;;;4936814;29;20071;-72
2022/07/11 00:38:02;;;;;;;1.55;1.15;;;16.30;99.90;;;;;;4936738;29;20077;-72
2022/07/11 00:40:28;;;;;;;1.35;1.25;;;16.30;99.90;;;;;;4937110;29;20182;-72
2022/07/11 00:42:54;;;;;;;1.20;1.10;;;16.30;99.90;;;;;;4936846;29;20094;-72
2022/07/11 00:45:20;;;;;;;1.10;1.00;;;16.20;99.90;;;;;;4937325;29;20083;-72
2022/07/11 00:47:46;;;;;;;2.38;1.40;;;16.30;99.90;;;;;;4936721;29;20043;-72
2022/07/11 00:50:13;;;;;;;1.92;1.27;;;16.20;99.90;;;;;;4936644;29;20050;-72
2022/07/11 00:52:40;;;;;;;4.45;1.35;;;16.20;99.90;;;;;;4936111;29;20395;-72
2022/07/11 00:55:07;;;;;;;1.73;1.40;;;16.10;99.90;;;;;;4936600;29;20052;-72
2022/07/11 00:57:34;;;;;;;3.03;1.33;;;16.10;99.90;;;;;;4935320;29;20106;-72
2022/07/11 01:00:00;;;;;;;2.13;1.20;;;16.00;99.90;;;;;;4936745;29;20047;-72
2022/07/11 01:02:25;;;;;;;1.38;1.08;;;16.10;99.90;;;;;;4936884;29;20139;-72
2022/07/11 01:04:52;;;;;;;1.83;1.30;;;16.00;99.90;;;;;;4936245;29;20176;-72
2022/07/11 01:07:17;;;;;;;1.73;1.10;;;16.00;99.90;;;;;;4936496;29;20067;-72
2022/07/11 01:09:43;;;;;;;4.28;1.48;;;16.00;99.90;;;;;;4936928;29;20051;-72
2022/07/11 01:12:09;;;;;;;1.45;1.27;;;16.00;99.90;;;;;;4936190;29;20453;-72
2022/07/11 01:14:34;;;;;;;2.05;1.85;;;16.00;99.90;;;;;;4936307;29;20062;-72
2022/07/11 01:17:00;;;;;;;2.22;1.50;;;16.00;99.90;;;;;;4936131;29;20054;-72
2022/07/11 01:19:26;;;;;;;2.13;1.35;;;16.00;99.90;;;;;;4936782;29;20046;-72
2022/07/11 01:21:56;;;;;;;3.38;1.25;;;16.00;99.90;;;;;;4936389;29;20521;-72
2022/07/11 01:24:22;;;;;;;1.20;1.05;;;16.00;99.90;;;;;;4936526;29;20052;-72
2022/07/11 01:26:50;;;;;;;3.45;1.58;;;16.00;99.90;;;;;;4935864;29;20513;-72
2022/07/11 01:29:15;;;;;;;2.33;1.50;;;16.00;99.90;;;;;;4936386;29;20153;-71
2022/07/11 01:31:42;;;;;;;2.60;1.77;;;16.00;99.90;;;;;;4936205;29;20504;-72
2022/07/11 01:34:08;;;;;;;3.45;1.60;;;16.00;99.90;;;;;;4936025;29;20051;-72
2022/07/11 01:36:34;;;;;;;3.08;1.63;;;16.10;99.90;;;;;;4935692;29;20453;-72
2022/07/11 01:38:59;;;;;;;2.30;1.55;;;16.00;99.90;;;;;;4935107;29;20106;-72
2022/07/11 01:41:25;;;;;;;5.25;1.75;;;16.00;99.90;;;;;;4935730;29;20126;-72
2022/07/11 01:43:51;;;;;;;2.08;1.35;;;16.00;99.90;;;;;;4935826;29;20387;-72
2022/07/11 01:46:17;;;;;;;1.42;1.30;;;16.00;99.90;;;;;;4935736;29;20503;-72
2022/07/11 01:48:43;;;;;;;2.60;1.83;;;16.00;99.90;;;;;;4935496;29;20498;-71
2022/07/11 01:51:09;;;;;;;2.67;1.42;;;16.00;99.90;;;;;;4935998;29;20123;-72
2022/07/11 01:53:35;;;;;;;3.80;1.90;;;16.10;99.90;;;;;;4935933;29;20154;-72
2022/07/11 01:56:01;;;;;;;3.72;1.90;;;16.00;99.90;;;;;;4935435;29;20508;-72
2022/07/11 01:58:29;;;;;;;1.73;1.40;;;16.00;99.90;;;;;;4934349;29;20050;-72
2022/07/11 02:00:54;;;;;;;1.58;1.48;;;16.00;99.90;;;;;;4935223;29;20055;-72
2022/07/11 02:03:20;;;;;;;2.53;1.85;;;16.00;99.90;;;;;;4935410;29;20103;-72
2022/07/11 02:05:45;;;;;;;3.00;1.48;;;16.10;99.90;;;;;;4934020;29;20054;-72
2022/07/11 02:08:11;;;;;;;2.03;1.63;;;16.10;99.90;;;;;;4935200;29;20363;-71
2022/07/11 02:10:42;;;;;;;3.05;1.58;;;16.00;99.90;;;;;;4935389;29;20542;-72
2022/07/11 02:13:09;;;;;;;1.88;1.48;;;16.10;99.90;;;;;;4935369;29;20052;-72
2022/07/11 02:15:35;;;;;;;1.50;1.35;;;16.10;99.90;;;;;;4934612;29;20464;-72
2022/07/11 02:18:01;;;;;;;1.73;1.52;;;16.10;99.90;;;;;;4934804;29;20043;-72
2022/07/11 02:20:27;;;;;;;1.85;1.58;;;16.10;99.90;;;;;;4935180;29;20047;-71
2022/07/11 02:22:53;;;;;;;2.30;1.50;;;16.10;99.90;;;;;;4934129;29;20446;-72
2022/07/11 02:25:21;;;;;;;2.15;1.73;;;16.10;99.90;;;;;;4934928;29;20048;-72
2022/07/11 02:27:46;;;;;;;2.67;1.83;;;16.10;99.90;;;;;;4934722;29;20048;-71
2022/07/11 02:30:12;;;;;;;2.58;1.70;;;16.00;99.90;;;;;;4935105;29;20050;-72
2022/07/11 02:32:38;;;;;;;1.85;1.70;;;16.10;99.90;;;;;;4934406;29;20102;-72
2022/07/11 02:35:04;;;;;;;2.72;2.00;;;16.00;99.90;;;;;;4934626;29;20047;-72
2022/07/11 02:37:31;;;;;;;2.33;1.70;;;16.10;99.90;;;;;;4934876;29;20047;-72
2022/07/11 02:39:57;;;;;;;2.08;1.25;;;16.00;99.90;;;;;;4934040;29;20479;-71
2022/07/11 02:42:22;;;;;;;1.90;1.80;;;16.00;99.90;;;;;;4935143;29;20138;-72
2022/07/11 02:44:48;;;;;;;2.40;2.17;;;16.10;99.90;;;;;;4934990;29;20043;-72
2022/07/11 02:47:14;;;;;;;2.38;1.98;;;16.00;99.90;;;;;;4935056;29;20191;-72
2022/07/11 02:49:40;;;;;;;1.90;1.75;;;16.00;99.90;;;;;;4935216;29;20058;-71
2022/07/11 02:52:06;;;;;;;2.85;1.90;;;16.00;99.90;;;;;;4938047;29;20048;-72
2022/07/11 02:54:32;;;;;;;4.57;1.92;;;16.00;99.90;;;;;;4938963;29;20051;-72
2022/07/11 02:56:58;;;;;;;1.85;1.67;;;15.90;99.90;;;;;;4938689;29;20514;-72
2022/07/11 02:59:23;;;;;;;2.13;1.75;;;15.90;99.90;;;;;;4938647;29;20099;-72
2022/07/11 03:01:50;;;;;;;3.47;1.85;;;15.90;99.90;;;;;;4938355;29;20058;-72
2022/07/11 03:04:16;;;;;;;2.83;1.77;;;15.80;99.90;;;;;;4938839;29;20113;-72
2022/07/11 03:06:42;;;;;;;3.60;1.90;;;15.80;99.90;;;;;;4938551;29;20058;-72
2022/07/11 03:09:09;;;;;;;2.97;1.75;;;15.80;99.90;;;;;;4938478;29;20046;-72
2022/07/11 03:11:35;;;;;;;2.70;1.70;;;15.80;99.90;;;;;;4938301;29;20531;-71
2022/07/11 03:14:01;;;;;;;2.08;1.85;;;15.80;99.90;;;;;;4938443;29;20043;-71
2022/07/11 03:16:28;;;;;;;2.08;1.88;;;15.80;99.90;;;;;;4938397;29;20054;-71
2022/07/11 03:18:54;;;;;;;2.50;1.70;;;15.80;99.90;;;;;;4938224;29;20044;-71
2022/07/11 03:21:20;;;;;;;3.03;1.77;;;15.80;99.90;;;;;;4938509;29;20101;-72
2022/07/11 03:23:46;;;;;;;2.25;1.80;;;15.70;99.90;;;;;;4937881;29;20087;-71
2022/07/11 03:26:12;;;;;;;4.78;1.95;;;15.80;99.90;;;;;;4938038;29;20047;-71
2022/07/11 03:28:37;;;;;;;2.53;1.83;;;15.80;99.90;;;;;;4938135;29;20050;-72
2022/07/11 03:31:03;;;;;;;2.00;1.73;;;15.80;99.90;;;;;;4937194;29;20086;-72
2022/07/11 03:33:29;;;;;;;2.83;1.70;;;15.80;99.90;;;;;;4937940;29;20052;-72
2022/07/11 03:35:55;;;;;;;3.25;1.83;;;15.80;99.90;;;;;;4936371;29;20056;-71
2022/07/11 03:38:21;;;;;;;3.10;2.05;;;15.80;99.90;;;;;;4937940;29;20047;-72
2022/07/11 03:40:47;;;;;;;2.00;1.40;;;15.80;99.90;;;;;;4937638;29;20118;-72
2022/07/11 03:43:17;;;;;;;3.00;1.73;;;15.80;99.90;;;;;;4936650;29;20052;-72
2022/07/11 03:45:42;;;;;;;2.88;1.63;;;15.80;99.90;;;;;;4936877;29;20432;-71
2022/07/11 03:48:08;;;;;;;2.92;1.90;;;15.90;99.90;;;;;;4938248;29;20127;-72
2022/07/11 03:50:35;;;;;;;3.53;1.48;;;15.90;99.90;;;;;;4937791;29;20449;-71
2022/07/11 03:53:01;;;;;;;4.15;2.10;;;15.90;99.90;;;;;;4937675;29;20052;-72
2022/07/11 03:55:28;;;;;;;2.55;1.80;;;15.90;99.90;;;;;;4937695;29;20508;-71
2022/07/11 03:57:54;;;;;;;2.60;1.67;;;15.90;99.90;;;;;;4937957;29;20039;-71
2022/07/11 04:00:20;;;;;;;5.43;2.67;;;16.00;99.90;;;;;;4936320;29;20059;-72
2022/07/11 04:02:49;;;;;;;3.10;1.50;;;15.90;99.90;;;;;;4936830;29;20054;-72
2022/07/11 04:05:14;;;;;;;2.15;1.48;;;16.00;99.90;;;;;;4937417;29;20048;-72
2022/07/11 04:07:40;;;;;;;2.45;1.63;;;15.90;99.90;;;;;;4937304;29;20130;-72
2022/07/11 04:10:06;;;;;;;1.60;1.50;;;16.00;99.90;;;;;;4937508;29;20046;-72
2022/07/11 04:12:32;;;;;;;4.18;1.50;;;16.00;99.90;;;;;;4937566;29;20048;-73
2022/07/11 04:14:58;;;;;;;2.20;1.63;;;16.00;99.90;;;;;;4937235;29;20058;-71
2022/07/11 04:17:24;;;;;;;3.75;1.90;;;16.00;99.90;;;;;;4937167;29;20054;-72
2022/07/11 04:19:50;;;;;;;7.88;1.63;;;15.90;99.90;;;;;;4937221;29;20055;-72
2022/07/11 04:22:16;;;;;;;3.90;1.60;;;15.90;99.90;;;;;;4937230;29;20056;-72
2022/07/11 04:24:42;;;;;;;2.22;1.48;;;15.90;99.90;;;;;;4937109;29;20074;-72
2022/07/11 04:27:08;;;;;;;2.67;1.60;;;15.90;99.90;;;;;;4937493;29;20052;-72
2022/07/11 04:29:33;;;;;;;1.98;1.55;;;15.90;99.90;;;;;;4936994;29;20040;-71
2022/07/11 04:31:59;;;;;;;1.85;1.58;;;15.90;99.90;;;;;;4937075;29;20476;-72
2022/07/11 04:34:24;;;;;;;3.35;1.65;;;15.90;99.90;;;;;;4936968;29;20055;-71
2022/07/11 04:36:50;;;;;;;1.50;1.40;;;15.90;99.90;;;;;;4936778;29;20056;-71
2022/07/11 04:39:16;;;;;;;1.35;1.25;;;15.90;99.90;;;;;;4936831;29;20044;-72
2022/07/11 04:41:42;;;;;;;1.42;1.33;;;15.90;99.90;;;;;;4936064;29;20459;-72
2022/07/11 04:44:07;;;;;;;2.25;1.25;;;15.90;99.90;;;;;;4936771;29;20048;-71
2022/07/11 04:46:33;;;;;;;1.15;1.05;;;16.00;99.90;;;;;;4935858;29;20365;-72
2022/07/11 04:48:59;;;;;;;2.60;1.30;;;16.00;99.90;;;;;;4936576;29;20075;-72
2022/07/11 04:51:25;;;;;;;1.77;1.52;;;16.00;99.90;;;;;;4936664;29;20058;-72
2022/07/11 04:53:51;;;;;;;2.53;1.20;;;16.00;99.90;;;;;;4936411;29;20071;-72
2022/07/11 04:56:17;;;;;;;1.63;1.20;;;16.10;99.90;;;;;;4936275;29;20405;-71
2022/07/11 04:58:43;;;;;;;2.30;1.00;;;16.10;99.90;;;;;;4936365;29;20044;-71
2022/07/11 05:01:09;;;;;;;1.50;1.13;;;16.20;99.90;;;;;;4936514;29;20064;-71
2022/07/11 05:03:34;;;;;;;1.77;1.15;;;16.10;99.90;;;;;;4936408;29;20078;-71
2022/07/11 05:06:00;;;;;;;3.40;1.25;;;16.10;99.90;;;;;;4936461;29;20088;-71
2022/07/11 05:08:26;;;;;;;1.63;1.20;;;16.10;99.90;;;;;;4935996;29;20114;-72
2022/07/11 05:10:52;;;;;;;2.17;1.05;;;16.10;99.90;;;;;;4936006;29;20047;-71
2022/07/11 05:13:18;;;;;;;1.00;0.95;;;16.10;99.90;;;;;;4935789;29;20048;-71
2022/07/11 05:15:44;;;;;;;1.60;1.00;;;16.00;99.90;;;;;;4935314;29;20094;-70
2022/07/11 05:18:10;;;;;;;1.45;0.98;;;16.10;99.90;;;;;;4936290;29;20078;-72
2022/07/11 05:20:36;;;;;;;3.78;1.20;;;16.10;99.90;;;;;;4936211;29;20469;-74
2022/07/11 05:23:02;;;;;;;1.65;0.98;;;16.10;99.90;;;;;;4935859;29;20059;-75
2022/07/11 05:25:28;;;;;;;1.17;0.88;;;16.00;99.90;;;;;;4935966;29;20055;-74
2022/07/11 05:27:54;;;;;;;2.53;0.75;;;16.00;99.90;;;;;;4935575;29;20048;-71
2022/07/11 05:30:20;;;;;;;0.45;0.45;;;15.90;99.90;;;;;;4935633;29;20190;-68
2022/07/11 05:32:45;;;;;;;1.20;0.60;;;15.90;99.90;;;;;;4935335;29;20059;-74
2022/07/11 05:35:11;;;;;;;2.35;0.98;;;15.90;99.90;;;;;;4935415;29;20079;-74
2022/07/11 05:37:37;;;;;;;1.00;0.60;;;15.90;99.90;;;;;;4935090;29;20052;-74
2022/07/11 05:40:03;;;;;;;0.40;0.40;;;16.00;99.90;;;;;;4935605;29;20130;-74
2022/07/11 05:42:31;;;;;;;0.50;0.47;;;15.60;99.90;;;;;;4935184;29;20150;-75
2022/07/11 05:44:57;;;;;;;0.70;0.70;;;16.10;99.90;;;;;;4935647;29;20048;-74
2022/07/11 05:47:22;;;;;;;0.70;0.45;;;16.10;99.90;;;;;;4935211;29;20497;-75
2022/07/11 05:49:48;;;;;;;2.28;0.80;;;16.10;99.90;;;;;;4935024;29;20078;-74
2022/07/11 05:52:14;;;;;;;1.58;0.80;;;16.10;99.90;;;;;;4934850;29;20043;-74
2022/07/11 05:54:39;;;;;;;0.80;0.50;;;16.20;99.90;;;;;;4934936;29;20051;-75
2022/07/11 05:57:05;;;;;;;3.65;0.80;;;16.20;99.90;;;;;;4935003;29;20131;-74
2022/07/11 05:59:31;;;;;;;0.63;0.63;;;16.30;99.90;;;;;;4934815;29;20474;-74
2022/07/11 06:01:57;;;;;;;0.73;0.57;;;16.40;99.90;;;;;;4934849;29;20047;-74
2022/07/11 06:04:22;;;;;;;0.52;0.50;;;16.40;99.90;;;;;;4934603;29;20048;-74
2022/07/11 06:06:48;;;;;;;0.88;0.70;;;16.50;99.90;;;;;;4934889;29;20043;-73
2022/07/11 06:09:14;;;;;;;1.42;0.55;;;16.50;99.90;;;;;;4934315;29;20127;-75
2022/07/11 06:11:40;;;;;;;0.75;0.70;;;16.60;99.90;;;;;;4934952;29;20047;-75
2022/07/11 06:14:06;;;;;;;1.67;0.60;;;16.60;99.90;;;;;;4935202;29;20074;-73
2022/07/11 06:16:32;;;;;;;3.35;0.63;;;16.70;99.90;;;;;;4935137;29;20048;-74
2022/07/11 06:18:58;;;;;;;1.50;0.70;;;16.70;99.90;;;;;;4934827;29;20043;-75
2022/07/11 06:21:27;;;;;;;1.75;0.50;;;16.70;99.90;;;;;;4935043;29;20043;-74
2022/07/11 06:23:57;;;;;;;1.08;0.77;;;16.70;99.90;;;;;;4934618;29;20044;-74
2022/07/11 06:26:22;;;;;;;0.75;0.60;;;16.70;99.90;;;;;;4934282;29;20600;-74
2022/07/11 06:28:48;;;;;;;0.63;0.63;;;16.70;99.90;;;;;;4934823;29;20089;-72
2022/07/11 06:31:14;;;;;;;0.90;0.82;;;16.70;99.90;;;;;;4934865;29;20047;-71
2022/07/11 06:33:40;;;;;;;0.73;0.63;;;16.60;99.90;;;;;;4935011;29;20059;-71
2022/07/11 06:36:06;;;;;;;0.60;0.50;;;16.70;99.90;;;;;;4934311;29;20525;-71
2022/07/11 06:38:32;;;;;;;0.40;0.40;;;16.70;99.90;;;;;;4934693;29;20098;-71
2022/07/11 06:40:58;;;;;;;1.02;0.68;;;16.70;99.90;;;;;;4934577;29;20382;-71
2022/07/11 06:43:24;;;;;;;0.47;0.47;;;16.90;99.90;;;;;;4934528;29;20458;-72
2022/07/11 06:45:51;;;;;;;1.05;0.40;;;16.90;99.90;;;;;;4934829;29;20166;-72
2022/07/11 06:48:17;;;;;;;1.42;0.50;;;17.30;99.90;;;;;;4933871;29;20044;-72
2022/07/11 06:50:42;;;;;;;0.85;0.63;;;18.00;99.90;;;;;;4934795;29;20501;-72
2022/07/11 06:53:09;;;;;;;0.32;0.30;;;18.40;99.90;;;;;;4934557;29;20467;-73
2022/07/11 06:55:35;;;;;;;1.05;0.50;;;18.70;99.90;;;;;;4934634;29;20184;-72
2022/07/11 06:58:01;;;;;;;1.40;0.52;;;18.80;99.90;;;;;;4934408;29;20048;-73
2022/07/11 07:00:27;;;;;;;0.40;0.30;;;18.80;99.90;;;;;;4934268;29;20055;-72
2022/07/11 07:02:56;;;;;;;2.20;0.40;;;18.70;99.90;;;;;;4934306;29;20063;-73
2022/07/11 07:05:23;;;;;;;0.63;0.43;;;18.60;99.90;;;;;;4934358;29;20060;-72
2022/07/11 07:07:49;;;;;;;0.50;0.50;;;19.00;99.90;;;;;;4934708;29;20052;-77
2022/07/11 07:10:15;;;;;;;0.47;0.40;;;19.60;99.90;;;;;;4933090;29;20482;-75
2022/07/11 07:12:40;;;;;;;0.70;0.70;;;19.60;99.90;;;;;;4933136;29;20051;-73
2022/07/11 07:15:07;;;;;;;1.35;0.45;;;19.40;99.90;;;;;;4934348;29;20044;-73
2022/07/11 07:17:33;;;;;;;0.65;0.40;;;19.20;99.90;;;;;;4934677;29;20051;-73
2022/07/11 07:19:58;;;;;;;0.73;0.52;;;19.00;99.90;;;;;;4934321;29;20422;-72
2022/07/11 07:22:24;;;;;;;1.17;0.57;;;18.80;99.90;;;;;;4934541;29;20094;-72
2022/07/11 07:24:50;;;;;;;1.27;0.50;;;18.70;99.90;;;;;;4933873;29;20057;-72
2022/07/11 07:27:15;;;;;;;0.43;0.43;;;18.80;99.90;;;;;;4934084;29;20090;-72
2022/07/11 07:29:41;;;;;;;0.40;0.40;;;19.00;99.90;;;;;;4933916;29;20479;-73
2022/07/11 07:32:07;;;;;;;0.40;0.30;;;19.20;99.90;;;;;;4933901;29;20122;-73
2022/07/11 07:34:33;;;;;;;1.23;0.25;;;19.30;99.90;;;;;;4932998;29;20055;-73
2022/07/11 07:36:59;;;;;;;0.63;0.50;;;19.30;99.90;;;;;;4934571;29;20051;-73
2022/07/11 07:39:25;;;;;;;0.55;0.22;;;19.30;99.90;;;;;;4936602;29;20421;-72
2022/07/11 07:41:51;;;;;;;0.30;0.30;;;19.10;99.90;;;;;;4937987;29;20059;-72
2022/07/11 07:44:17;;;;;;;2.03;0.47;;;19.10;99.90;;;;;;4937774;29;20207;-73
2022/07/11 07:46:43;;;;;;;0.45;0.45;;;19.10;99.90;;;;;;4937578;29;20102;-74
2022/07/11 07:49:08;;;;;;;0.28;0.20;;;18.90;99.90;;;;;;4937692;29;20430;-73
2022/07/11 07:51:34;;;;;;;0.60;0.43;;;18.80;99.90;;;;;;4937242;29;20051;-73
2022/07/11 07:53:59;;;;;;;0.40;0.40;;;18.70;99.90;;;;;;4937330;29;20055;-74
2022/07/11 07:56:25;;;;;;;0.60;0.35;;;18.60;99.90;;;;;;4937258;29;20130;-73
2022/07/11 07:58:51;;;;;;;1.08;0.40;;;18.80;99.90;;;;;;4937170;29;20138;-74
2022/07/11 08:01:36;;;;;;;1.00;0.50;;;19.10;99.90;;;;;;4936743;29;20047;-73
2022/07/11 08:04:06;;;;;;;0.40;0.40;;;19.20;99.90;;;;;;4937158;29;20161;-74
2022/07/11 08:06:33;;;;;;;0.85;0.52;;;19.00;99.90;;;;;;4937343;29;20079;-73
2022/07/11 08:08:58;;;;;;;0.88;0.50;;;18.90;99.90;;;;;;4937315;29;20104;-73
2022/07/11 08:11:25;;;;;;;1.00;0.50;;;18.90;99.90;;;;;;4937030;29;20056;-72
2022/07/11 08:13:51;;;;;;;0.52;0.52;;;18.90;99.90;;;;;;4937055;29;20512;-72
2022/07/11 08:16:17;;;;;;;1.52;0.60;;;18.90;99.90;;;;;;4936959;29;20047;-73
2022/07/11 08:18:43;;;;;;;1.75;0.60;;;18.90;99.90;;;;;;4936803;29;20066;-73
2022/07/11 08:21:09;;;;;;;0.80;0.80;;;19.00;99.90;;;;;;4936153;29;20430;-71
2022/07/11 08:23:35;;;;;;;0.85;0.60;;;19.10;99.90;;;;;;4936785;29;20054;-71
2022/07/11 08:26:01;;;;;;;1.00;0.50;;;19.20;99.90;;;;;;4936701;29;20043;-71
2022/07/11 08:28:27;;;;;;;0.52;0.45;;;19.20;99.90;;;;;;4936849;29;20130;-72
2022/07/11 08:30:53;;;;;;;2.08;0.50;;;19.20;99.90;;;;;;4936753;29;20143;-72
2022/07/11 08:33:18;;;;;;;0.60;0.57;;;19.20;99.90;;;;;;4936728;29;20106;-71
2022/07/11 08:35:45;;;;;;;0.45;0.38;;;19.20;99.90;;;;;;4936127;29;20115;-72
2022/07/11 08:38:11;;;;;;;0.98;0.40;;;19.30;99.90;;;;;;4936594;29;20056;-72
2022/07/11 08:40:39;;;;;;;0.55;0.50;;;19.30;99.90;;;;;;4936736;29;20062;-72
2022/07/11 08:43:17;;;;;;;0.70;0.30;;;19.20;99.90;;;;;;4936468;29;20062;-72
2022/07/11 08:45:43;;;;;;;0.22;0.22;;;19.20;99.90;;;;;;4936342;29;20083;-72
2022/07/11 08:48:10;;;;;;;0.63;0.40;;;19.10;99.90;;;;;;4936396;29;20055;-72
2022/07/11 08:50:36;;;;;;;4.72;2.47;;;19.20;99.90;;;;;;4936404;29;20052;-71
2022/07/11 08:53:04;;;;;;;0.30;0.30;;;19.10;99.90;;;;;;4936291;29;20048;-71
2022/07/11 08:55:30;;;;;;;0.13;0.13;;;19.10;99.90;;;;;;4936386;29;20102;-71
2022/07/11 08:57:56;;;;;;;1.20;0.60;;;19.00;99.90;;;;;;4936050;29;20137;-69
2022/07/11 09:00:22;;;;;;;0.20;0.20;;;19.00;99.90;;;;;;4935942;29;20048;-69
2022/07/11 09:02:49;;;;;;;1.88;0.40;;;18.90;99.90;;;;;;4936354;29;20070;-69
2022/07/11 09:05:15;;;;;;;1.65;0.90;;;19.00;99.90;;;;;;4935902;29;20047;-74
2022/07/11 09:07:46;;;;;;;0.30;0.30;;;19.10;99.90;;;;;;4935803;29;20129;-75
2022/07/11 09:10:12;;;;;;;0.40;0.22;;;19.40;99.90;;;;;;4936167;29;20054;-75
2022/07/11 09:12:59;;;;;;;0.85;0.50;;;19.60;99.90;;;;;;4935836;29;20052;-75
2022/07/11 09:15:38;;;;;;;0.15;0.15;;;19.80;99.90;;;;;;4936279;29;20044;-75
2022/07/11 09:18:06;;;;;;;0.30;0.22;;;19.90;99.90;;;;;;4935697;29;20124;-76
2022/07/11 09:26:43;;;;;;;42.10;24.02;;;19.30;99.90;;;;;;4935981;29;20051;-76
2022/07/11 09:29:11;;;;;;;19.40;10.95;;;19.20;99.90;;;;;;4935513;29;20051;-76
2022/07/11 09:31:41;;;;;;;1.02;0.40;;;19.10;99.90;;;;;;4935550;29;20055;-74
2022/07/11 09:34:11;;;;;;;1.70;0.50;;;19.10;99.90;;;;;;4935516;29;20067;-76
2022/07/11 09:36:56;;;;;;;0.20;0.20;;;19.10;99.90;;;;;;4935901;29;20059;-76
2022/07/11 09:39:23;;;;;;;0.65;0.40;;;19.20;99.90;;;;;;4935391;29;20457;-76
2022/07/11 09:41:51;;;;;;;1.42;0.45;;;19.20;99.90;;;;;;4935391;29;20122;-75
2022/07/11 09:44:17;;;;;;;0.57;0.38;;;19.30;99.90;;;;;;4933949;29;20577;-76
2022/07/11 09:46:46;;;;;;;0.28;0.28;;;19.40;99.90;;;;;;4935246;29;20083;-76
2022/07/11 09:49:13;;;;;;;0.35;0.35;;;19.50;99.90;;;;;;4935166;29;20095;-76
2022/07/11 09:51:39;;;;;;;1.63;0.40;;;19.50;99.90;;;;;;4935285;29;20051;-76
2022/07/11 09:54:06;;;;;;;0.47;0.38;;;19.50;99.90;;;;;;4935384;29;20571;-74
2022/07/11 09:56:32;;;;;;;2.30;1.35;;;19.30;99.90;;;;;;4934930;29;20059;-75
2022/07/11 09:59:00;;;;;;;0.28;0.28;;;19.20;99.90;;;;;;4933699;29;20047;-74
2022/07/11 10:01:27;;;;;;;1.20;0.30;;;19.20;99.90;;;;;;4934417;29;20059;-75
2022/07/11 10:03:53;;;;;;;0.20;0.20;;;19.20;99.90;;;;;;4934914;29;20142;-76
2022/07/11 10:06:19;;;;;;;0.28;0.20;;;19.30;99.90;;;;;;4935039;29;20055;-76
2022/07/11 10:08:44;;;;;;;0.10;0.10;;;19.20;99.90;;;;;;4934763;29;20098;-75
2022/07/11 10:11:11;;;;;;;0.80;0.40;;;19.20;99.90;;;;;;4934481;29;20051;-76
2022/07/11 10:13:38;;;;;;;0.40;0.30;;;19.10;99.90;;;;;;4934602;29;20126;-74
2022/07/11 10:16:26;;;;;;;1.35;0.40;;;19.10;99.90;;;;;;4934773;29;20073;-75
2022/07/11 10:18:56;;;;;;;0.20;0.20;;;19.10;99.90;;;;;;4932908;29;20083;-75
2022/07/11 10:21:54;;;;;;;0.13;0.10;;;19.10;99.90;;;;;;4934965;29;20048;-75
2022/07/11 10:24:19;;;;;;;2.72;1.23;;;19.10;99.90;;;;;;4935151;29;20047;-70
2022/07/11 10:27:15;;;;;;;0.57;0.57;;;19.10;99.90;;;;;;4934547;29;20334;-71
2022/07/11 10:29:49;;;;;;;0.60;0.60;;;19.10;99.90;;;;;;4934564;29;20043;-70
2022/07/11 10:32:16;;;;;;;0.40;0.30;;;19.00;99.90;;;;;;4934974;29;20123;-70
2022/07/11 10:34:42;;;;;;;0.20;0.20;;;19.10;99.90;;;;;;4934661;29;20056;-70
2022/07/11 10:37:10;;;;;;;0.35;0.35;;;19.10;99.90;;;;;;4935089;29;20114;-71
2022/07/11 10:39:37;;;;;;;0.57;0.40;;;19.20;99.90;;;;;;4933313;29;20061;-70
2022/07/11 10:42:05;;;;;;;0.40;0.30;;;19.10;99.90;;;;;;4934945;29;20066;-71
2022/07/11 10:44:51;;;;;;;12.27;5.65;;;19.20;99.90;;;;;;4934625;29;20520;-71
2022/07/11 10:47:41;;;;;;;0.47;0.47;;;19.20;99.90;;;;;;4934569;29;20056;-70
2022/07/11 10:50:35;;;;;;;0.38;0.30;;;19.20;99.90;;;;;;4934729;29;20109;-71
2022/07/11 10:53:08;;;;;;;0.95;0.45;;;19.30;99.90;;;;;;4934868;29;20048;-71
2022/07/11 10:56:01;;;;;;;0.30;0.28;;;19.20;99.90;;;;;;4933623;29;20078;-72
2022/07/11 10:58:31;;;;;;;2.35;1.30;;;19.30;99.90;;;;;;4934906;29;20560;-71
2022/07/11 11:01:10;;;;;;;0.30;0.30;;;19.40;99.90;;;;;;4934134;29;20516;-74
2022/07/11 11:03:36;;;;;;;1.23;0.40;;;19.50;99.90;;;;;;4934264;29;20099;-74
2022/07/11 11:06:02;;;;;;;0.93;0.30;;;19.60;99.90;;;;;;4934478;29;20195;-74
2022/07/11 11:08:38;;;;;;;0.38;0.32;;;19.60;99.90;;;;;;4934474;29;20052;-74
2022/07/11 11:11:22;;;;;;;0.70;0.50;;;19.50;99.90;;;;;;4934696;29;20087;-75
2022/07/11 11:14:19;;;;;;;0.40;0.35;;;19.60;99.90;;;;;;4938340;29;20087;-71
2022/07/11 11:16:46;;;;;;;0.20;0.17;;;19.50;99.90;;;;;;4937617;29;20480;-71
2022/07/11 11:19:45;;;;;;;2.17;0.60;;;19.60;99.90;;;;;;4937624;29;20453;-73
2022/07/11 11:22:16;;;;;;;0.85;0.32;;;19.70;99.90;;;;;;4937836;29;20048;-72
2022/07/11 11:24:43;;;;;;;0.75;0.40;;;19.80;99.90;;;;;;4937869;29;20483;-72
2022/07/11 11:27:21;;;;;;;0.28;0.28;;;20.00;99.90;;;;;;4938312;29;20079;-72
2022/07/11 11:29:51;;;;;;;0.20;0.20;;;19.90;99.90;;;;;;4937815;29;20561;-72
2022/07/11 11:32:18;;;;;;;0.47;0.47;;;19.80;99.90;;;;;;4937472;29;20087;-72
2022/07/11 11:34:44;;;;;;;1.48;0.50;;;19.90;99.90;;;;;;4937600;29;20146;-73
2022/07/11 11:37:10;;;;;;;0.85;0.30;;;19.80;99.90;;;;;;4935981;29;20469;-72
2022/07/11 11:39:41;;;;;;;1.80;0.52;;;19.80;99.90;;;;;;4937412;29;20130;-71
2022/07/11 11:42:13;;;;;;;0.40;0.40;;;19.70;99.90;;;;;;4937819;29;20052;-75
2022/07/11 11:44:53;;;;;;;0.50;0.50;;;19.60;99.90;;;;;;4936733;29;20055;-78
2022/07/11 11:47:19;;;;;;;1.73;0.50;;;19.50;99.90;;;;;;4937417;29;20052;-71
2022/07/11 11:49:47;;;;;;;0.40;0.40;;;19.60;99.90;;;;;;4937539;29;20058;-71
2022/07/11 11:52:13;;;;;;;0.38;0.38;;;19.60;99.90;;;;;;4936952;29;20491;-72
2022/07/11 11:54:41;;;;;;;0.77;0.43;;;19.60;99.90;;;;;;4937979;29;20123;-72
2022/07/11 11:57:11;;;;;;;0.47;0.47;;;19.60;99.90;;;;;;4937105;29;20044;-72
2022/07/11 11:59:38;;;;;;;0.40;0.40;;;19.80;99.90;;;;;;4937230;29;20051;-72
2022/07/11 12:02:04;;;;;;;0.50;0.50;;;20.00;99.90;;;;;;4937471;29;20079;-72
2022/07/11 12:04:32;;;;;;;0.50;0.50;;;20.10;99.90;;;;;;4937652;29;20505;-71
2022/07/11 12:06:59;;;;;;;0.68;0.50;;;20.20;99.90;;;;;;4936841;29;20460;-73
2022/07/11 12:14:55;;;;;;;0.60;0.50;;;20.30;99.90;;;;;;4937095;29;20111;-72
2022/07/11 12:17:25;;;;;;;2.55;1.77;;;20.40;99.90;;;;;;4937184;29;20091;-72
2022/07/11 12:19:50;;;;;;;1.35;0.20;;;20.40;99.90;;;;;;4937126;29;20053;-72
2022/07/11 12:22:16;;;;;;;0.30;0.30;;;20.30;99.90;;;;;;4937494;29;20051;-72
2022/07/11 12:24:50;;;;;;;0.90;0.75;;;20.30;99.90;;;;;;4936409;29;20488;-72
2022/07/11 12:27:19;;;;;;;0.40;0.40;;;20.10;99.90;;;;;;4936938;29;20066;-72
2022/07/11 12:29:49;;;;;;;0.47;0.47;;;20.00;99.90;;;;;;4937070;29;20058;-72
2022/07/11 12:32:16;;;;;;;2.47;0.65;;;20.00;99.90;;;;;;4937111;29;20056;-72
2022/07/11 12:34:44;;;;;;;0.30;0.30;;;20.20;99.90;;;;;;4936694;29;20480;-72
2022/07/11 12:37:14;;;;;;;0.40;0.40;;;20.20;99.90;;;;;;4936710;29;20059;-72
2022/07/11 12:39:56;;;;;;;0.65;0.40;;;20.10;99.90;;;;;;4936296;29;20460;-72
2022/07/11 12:42:25;;;;;;;0.30;0.30;;;19.90;99.90;;;;;;4936974;29;20149;-72
2022/07/11 12:45:13;;;;;;;0.70;0.30;;;19.90;99.90;;;;;;4936533;29;20094;-72
2022/07/11 12:47:41;;;;;;;0.63;0.60;;;20.00;99.90;;;;;;4936740;29;20058;-71
2022/07/11 12:50:20;;;;;;;0.75;0.60;;;20.00;99.90;;;;;;4936502;29;20047;-72
2022/07/11 12:52:56;;;;;;;0.50;0.50;;;20.00;99.90;;;;;;4936153;29;20430;-72
2022/07/11 12:55:28;;;;;;;0.55;0.40;;;20.00;99.90;;;;;;4936142;29;20051;-72
2022/07/11 12:58:21;;;;;;;1.20;0.63;;;20.00;99.90;;;;;;4936279;29;20174;-72
2022/07/11 13:00:58;;;;;;;1.42;0.50;;;20.00;99.90;;;;;;4935540;29;20063;-72